createdAt,value
2023-09-21T00:00:00.727Z,100830
2023-09-21T00:01:01.882Z,100830
2023-09-21T00:02:00.743Z,100830
2023-09-21T00:03:00.689Z,100830
2023-09-21T00:04:00.799Z,100830
2023-09-21T00:05:00.636Z,100830
2023-09-21T00:06:00.893Z,100820
2023-09-21T00:07:00.593Z,100830
2023-09-21T00:08:00.681Z,100820
2023-09-21T00:09:00.760Z,100820
2023-09-21T00:10:00.642Z,100820
2023-09-21T00:11:00.963Z,100820
2023-09-21T00:12:00.663Z,100820
2023-09-21T00:13:01.206Z,100820
2023-09-21T00:14:00.610Z,100820
2023-09-21T00:15:01.250Z,100820
2023-09-21T00:16:01.144Z,100820
2023-09-21T00:17:00.599Z,100810
2023-09-21T00:18:00.679Z,100820
2023-09-21T00:19:00.663Z,100810
2023-09-21T00:20:01.760Z,100810
2023-09-21T00:21:00.669Z,100820
2023-09-21T00:22:00.634Z,100810
2023-09-21T00:23:00.625Z,100810
2023-09-21T00:24:00.759Z,100810
2023-09-21T00:25:00.595Z,100810
2023-09-21T00:26:00.663Z,100820
2023-09-21T00:27:00.809Z,100810
2023-09-21T00:28:00.941Z,100820
2023-09-21T00:29:00.648Z,100810
2023-09-21T00:30:00.830Z,100810
2023-09-21T00:31:00.614Z,100810
2023-09-21T00:32:01.424Z,100810
2023-09-21T00:33:00.977Z,100810
2023-09-21T00:34:00.636Z,100810
2023-09-21T00:35:00.699Z,100810
2023-09-21T00:36:00.852Z,100810
2023-09-21T00:37:00.667Z,100810
2023-09-21T00:38:00.650Z,100810
2023-09-21T00:39:00.684Z,100800
2023-09-21T00:40:00.752Z,100800
2023-09-21T00:41:00.647Z,100800
2023-09-21T00:42:00.737Z,100800
2023-09-21T00:43:00.655Z,100790
2023-09-21T00:44:06.347Z,100790
2023-09-21T00:45:03.469Z,100790
2023-09-21T00:46:02.109Z,100790
2023-09-21T00:47:01.112Z,100780
2023-09-21T00:48:00.726Z,100780
2023-09-21T00:49:00.632Z,100780
2023-09-21T00:50:00.786Z,100780
2023-09-21T00:51:03.066Z,100780
2023-09-21T00:52:00.669Z,100780
2023-09-21T00:53:00.700Z,100770
2023-09-21T00:54:00.884Z,100770
2023-09-21T00:55:01.284Z,100770
2023-09-21T00:56:04.110Z,100770
2023-09-21T00:57:00.834Z,100770
2023-09-21T00:58:02.293Z,100760
2023-09-21T00:59:00.713Z,100760
2023-09-21T01:00:00.955Z,100760
2023-09-21T01:01:00.627Z,100760
2023-09-21T01:02:00.756Z,100760
2023-09-21T01:03:01.461Z,100750
2023-09-21T01:04:01.106Z,100750
2023-09-21T01:05:00.713Z,100750
2023-09-21T01:06:00.748Z,100750
2023-09-21T01:07:00.640Z,100750
2023-09-21T01:08:01.150Z,100750
2023-09-21T01:09:00.669Z,100750
2023-09-21T01:10:00.695Z,100750
2023-09-21T01:11:00.759Z,100750
2023-09-21T01:12:00.794Z,100740
2023-09-21T01:13:00.629Z,100740
2023-09-21T01:14:00.602Z,100740
2023-09-21T01:15:03.575Z,100740
2023-09-21T01:16:01.356Z,100730
2023-09-21T01:17:00.639Z,100730
2023-09-21T01:18:01.059Z,100730
2023-09-21T01:19:00.669Z,100730
2023-09-21T01:20:01.103Z,100730
2023-09-21T01:21:03.099Z,100730
2023-09-21T01:22:03.479Z,100720
2023-09-21T01:23:18.868Z,100720
2023-09-21T01:24:00.673Z,100720
2023-09-21T01:25:00.693Z,100720
2023-09-21T01:26:00.667Z,100720
2023-09-21T01:27:00.761Z,100730
2023-09-21T01:28:00.673Z,100720
2023-09-21T01:29:00.650Z,100720
2023-09-21T01:30:00.799Z,100720
2023-09-21T01:31:00.633Z,100710
2023-09-21T01:32:00.666Z,100710
2023-09-21T01:33:00.767Z,100710
2023-09-21T01:34:00.684Z,100710
2023-09-21T01:35:00.637Z,100710
2023-09-21T01:36:00.702Z,100710
2023-09-21T01:37:00.597Z,100700
2023-09-21T01:38:00.656Z,100700
2023-09-21T01:39:00.844Z,100710
2023-09-21T01:40:00.783Z,100700
2023-09-21T01:41:00.710Z,100700
2023-09-21T01:42:16.694Z,100700
2023-09-21T01:43:02.815Z,100700
2023-09-21T01:44:00.624Z,100700
2023-09-21T01:45:00.644Z,100690
2023-09-21T01:46:00.749Z,100700
2023-09-21T01:47:00.639Z,100690
2023-09-21T01:48:00.776Z,100690
2023-09-21T01:49:00.656Z,100690
2023-09-21T01:50:00.670Z,100690
2023-09-21T01:51:00.852Z,100690
2023-09-21T01:52:00.705Z,100680
2023-09-21T01:53:00.635Z,100680
2023-09-21T01:54:00.663Z,100680
2023-09-21T01:55:00.595Z,100680
2023-09-21T01:56:00.603Z,100680
2023-09-21T01:57:00.636Z,100680
2023-09-21T01:58:00.679Z,100680
2023-09-21T01:59:00.623Z,100680
2023-09-21T02:00:01.316Z,100680
2023-09-21T02:01:00.689Z,100670
2023-09-21T02:02:00.646Z,100670
2023-09-21T02:03:01.220Z,100670
2023-09-21T02:04:00.677Z,100670
2023-09-21T02:05:00.719Z,100670
2023-09-21T02:06:00.682Z,100670
2023-09-21T02:07:00.621Z,100670
2023-09-21T02:08:00.732Z,100670
2023-09-21T02:09:00.702Z,100660
2023-09-21T02:10:00.635Z,100660
2023-09-21T02:11:00.822Z,100660
2023-09-21T02:12:00.659Z,100660
2023-09-21T02:13:01.187Z,100660
2023-09-21T02:14:00.728Z,100660
2023-09-21T02:15:00.696Z,100660
2023-09-21T02:16:00.621Z,100660
2023-09-21T02:17:00.637Z,100660
2023-09-21T02:18:01.505Z,100650
2023-09-21T02:19:00.640Z,100650
2023-09-21T02:20:00.623Z,100650
2023-09-21T02:21:00.798Z,100650
2023-09-21T02:22:00.620Z,100650
2023-09-21T02:23:01.160Z,100650
2023-09-21T02:24:00.650Z,100640
2023-09-21T02:25:00.770Z,100640
2023-09-21T02:26:00.682Z,100640
2023-09-21T02:27:00.686Z,100640
2023-09-21T02:28:01.271Z,100640
2023-09-21T02:29:00.644Z,100640
2023-09-21T02:30:00.652Z,100640
2023-09-21T02:31:00.703Z,100640
2023-09-21T02:32:00.634Z,100640
2023-09-21T02:33:00.767Z,100640
2023-09-21T02:34:00.679Z,100640
2023-09-21T02:35:00.647Z,100640
2023-09-21T02:36:00.709Z,100640
2023-09-21T02:37:00.607Z,100640
2023-09-21T02:38:00.810Z,100640
2023-09-21T02:39:00.638Z,100640
2023-09-21T02:40:00.964Z,100640
2023-09-21T02:41:00.620Z,100630
2023-09-21T02:42:00.656Z,100640
2023-09-21T02:43:01.088Z,100630
2023-09-21T02:44:00.736Z,100630
2023-09-21T02:45:00.691Z,100630
2023-09-21T02:46:00.615Z,100630
2023-09-21T02:47:00.629Z,100630
2023-09-21T02:48:01.391Z,100630
2023-09-21T02:49:00.626Z,100630
2023-09-21T02:50:00.680Z,100630
2023-09-21T02:51:02.657Z,100630
2023-09-21T02:52:00.627Z,100630
2023-09-21T02:53:01.684Z,100630
2023-09-21T02:54:00.682Z,100630
2023-09-21T02:55:00.668Z,100630
2023-09-21T02:56:00.645Z,100630
2023-09-21T02:57:00.668Z,100630
2023-09-21T02:58:01.746Z,100630
2023-09-21T02:59:00.607Z,100630
2023-09-21T03:00:00.668Z,100630
2023-09-21T03:01:00.638Z,100630
2023-09-21T03:02:00.724Z,100630
2023-09-21T03:03:01.526Z,100630
2023-09-21T03:04:00.778Z,100620
2023-09-21T03:05:00.626Z,100630
2023-09-21T03:06:00.659Z,100620
2023-09-21T03:07:00.598Z,100620
2023-09-21T03:08:00.969Z,100630
2023-09-21T03:09:00.741Z,100620
2023-09-21T03:10:00.645Z,100620
2023-09-21T03:11:00.618Z,100620
2023-09-21T03:12:00.666Z,100620
2023-09-21T03:13:00.664Z,100620
2023-09-21T03:14:01.163Z,100620
2023-09-21T03:15:00.679Z,100620
2023-09-21T03:16:01.254Z,100620
2023-09-21T03:17:00.696Z,100620
2023-09-21T03:18:00.702Z,100620
2023-09-21T03:19:00.662Z,100620
2023-09-21T03:20:00.808Z,100620
2023-09-21T03:21:07.189Z,100620
2023-09-21T03:22:00.593Z,100620
2023-09-21T03:23:01.618Z,100620
2023-09-21T03:24:01.049Z,100620
2023-09-21T03:25:00.657Z,100620
2023-09-21T03:26:00.665Z,100620
2023-09-21T03:27:00.666Z,100620
2023-09-21T03:28:03.284Z,100610
2023-09-21T03:29:00.619Z,100610
2023-09-21T03:30:00.788Z,100610
2023-09-21T03:31:00.684Z,100610
2023-09-21T03:32:00.626Z,100610
2023-09-21T03:33:00.768Z,100610
2023-09-21T03:34:00.665Z,100610
2023-09-21T03:35:00.630Z,100600
2023-09-21T03:36:00.678Z,100600
2023-09-21T03:37:00.614Z,100600
2023-09-21T03:38:00.646Z,100600
2023-09-21T03:39:00.675Z,100600
2023-09-21T03:40:00.631Z,100600
2023-09-21T03:41:00.633Z,100610
2023-09-21T03:42:00.840Z,100600
2023-09-21T03:43:00.681Z,100600
2023-09-21T03:44:00.632Z,100610
2023-09-21T03:45:00.640Z,100600
2023-09-21T03:46:00.714Z,100600
2023-09-21T03:47:00.667Z,100600
2023-09-21T03:48:00.759Z,100600
2023-09-21T03:49:00.687Z,100600
2023-09-21T03:50:01.772Z,100600
2023-09-21T03:51:00.699Z,100600
2023-09-21T03:52:00.606Z,100600
2023-09-21T03:53:01.058Z,100600
2023-09-21T03:54:00.750Z,100600
2023-09-21T03:55:01.064Z,100600
2023-09-21T03:56:00.611Z,100600
2023-09-21T03:57:00.672Z,100600
2023-09-21T03:58:01.269Z,100600
2023-09-21T03:59:01.374Z,100600
2023-09-21T04:00:01.019Z,100600
2023-09-21T04:01:00.617Z,100600
2023-09-21T04:02:00.646Z,100600
2023-09-21T04:03:05.270Z,100600
2023-09-21T04:04:00.718Z,100600
2023-09-21T04:05:00.641Z,100600
2023-09-21T04:06:01.016Z,100600
2023-09-21T04:07:00.623Z,100600
2023-09-21T04:08:00.683Z,100600
2023-09-21T04:09:00.725Z,100600
2023-09-21T04:10:00.651Z,100600
2023-09-21T04:11:00.664Z,100600
2023-09-21T04:12:00.660Z,100600
2023-09-21T04:13:00.643Z,100600
2023-09-21T04:14:12.609Z,100600
2023-09-21T04:15:00.687Z,100610
2023-09-21T04:16:04.294Z,100600
2023-09-21T04:17:00.631Z,100600
2023-09-21T04:18:00.901Z,100600
2023-09-21T04:19:00.676Z,100600
2023-09-21T04:20:00.697Z,100600
2023-09-21T04:21:16.397Z,100600
2023-09-21T04:22:00.589Z,100600
2023-09-21T04:23:00.610Z,100600
2023-09-21T04:24:00.758Z,100600
2023-09-21T04:25:00.841Z,100600
2023-09-21T04:26:00.629Z,100600
2023-09-21T04:27:00.706Z,100590
2023-09-21T04:28:00.642Z,100600
2023-09-21T04:29:00.621Z,100590
2023-09-21T04:30:01.633Z,100600
2023-09-21T04:31:00.657Z,100600
2023-09-21T04:32:00.699Z,100600
2023-09-21T04:33:00.701Z,100600
2023-09-21T04:34:00.625Z,100600
2023-09-21T04:35:03.373Z,100600
2023-09-21T04:36:00.877Z,100600
2023-09-21T04:37:00.622Z,100600
2023-09-21T04:38:00.610Z,100600
2023-09-21T04:39:00.730Z,100600
2023-09-21T04:40:02.554Z,100600
2023-09-21T04:41:00.616Z,100600
2023-09-21T04:42:00.679Z,100600
2023-09-21T04:43:00.622Z,100600
2023-09-21T04:44:15.749Z,100590
2023-09-21T04:45:00.643Z,100600
2023-09-21T04:46:00.639Z,100600
2023-09-21T04:47:00.695Z,100600
2023-09-21T04:48:00.904Z,100590
2023-09-21T04:49:00.739Z,100590
2023-09-21T04:50:00.639Z,100590
2023-09-21T04:51:00.667Z,100590
2023-09-21T04:52:00.672Z,100590
2023-09-21T04:53:00.618Z,100590
2023-09-21T04:54:00.622Z,100590
2023-09-21T04:55:01.261Z,100590
2023-09-21T04:56:00.593Z,100590
2023-09-21T04:57:00.675Z,100590
2023-09-21T04:58:00.715Z,100590
2023-09-21T04:59:00.638Z,100590
2023-09-21T05:00:01.049Z,100590
2023-09-21T05:01:00.675Z,100590
2023-09-21T05:02:00.586Z,100590
2023-09-21T05:03:00.787Z,100590
2023-09-21T05:04:00.808Z,100590
2023-09-21T05:05:00.722Z,100590
2023-09-21T05:06:00.689Z,100590
2023-09-21T05:07:00.672Z,100590
2023-09-21T05:08:00.620Z,100590
2023-09-21T05:09:00.791Z,100590
2023-09-21T05:10:00.736Z,100590
2023-09-21T05:11:00.857Z,100580
2023-09-21T05:12:00.598Z,100580
2023-09-21T05:13:00.780Z,100580
2023-09-21T05:14:00.590Z,100580
2023-09-21T05:15:00.714Z,100580
2023-09-21T05:16:01.397Z,100580
2023-09-21T05:17:00.650Z,100580
2023-09-21T05:18:00.778Z,100590
2023-09-21T05:19:01.013Z,100590
2023-09-21T05:20:00.657Z,100590
2023-09-21T05:21:00.690Z,100590
2023-09-21T05:22:01.135Z,100590
2023-09-21T05:23:00.620Z,100590
2023-09-21T05:24:00.735Z,100600
2023-09-21T05:25:01.154Z,100600
2023-09-21T05:26:00.613Z,100590
2023-09-21T05:27:00.649Z,100590
2023-09-21T05:28:00.669Z,100590
2023-09-21T05:29:00.614Z,100590
2023-09-21T05:30:00.937Z,100590
2023-09-21T05:31:00.780Z,100590
2023-09-21T05:32:00.666Z,100590
2023-09-21T05:33:00.704Z,100590
2023-09-21T05:34:00.765Z,100590
2023-09-21T05:35:00.632Z,100590
2023-09-21T05:36:00.649Z,100590
2023-09-21T05:37:00.621Z,100590
2023-09-21T05:38:00.634Z,100590
2023-09-21T05:39:00.657Z,100580
2023-09-21T05:40:00.624Z,100580
2023-09-21T05:41:00.740Z,100580
2023-09-21T05:42:00.734Z,100580
2023-09-21T05:43:00.617Z,100580
2023-09-21T05:44:00.719Z,100580
2023-09-21T05:45:00.704Z,100580
2023-09-21T05:46:00.683Z,100580
2023-09-21T05:47:00.629Z,100580
2023-09-21T05:48:00.671Z,100580
2023-09-21T05:49:00.789Z,100570
2023-09-21T05:50:00.853Z,100570
2023-09-21T05:51:00.726Z,100580
2023-09-21T05:52:00.722Z,100580
2023-09-21T05:53:00.689Z,100580
2023-09-21T05:54:00.613Z,100570
2023-09-21T05:55:00.657Z,100570
2023-09-21T05:56:00.613Z,100580
2023-09-21T05:57:00.709Z,100580
2023-09-21T05:58:00.665Z,100580
2023-09-21T05:59:00.660Z,100580
2023-09-21T06:00:00.679Z,100580
2023-09-21T06:01:00.607Z,100580
2023-09-21T06:02:00.872Z,100580
2023-09-21T06:03:00.870Z,100580
2023-09-21T06:04:00.773Z,100580
2023-09-21T06:05:00.637Z,100580
2023-09-21T06:06:00.754Z,100580
2023-09-21T06:07:00.635Z,100570
2023-09-21T06:08:00.614Z,100570
2023-09-21T06:09:00.736Z,100570
2023-09-21T06:10:00.675Z,100570
2023-09-21T06:11:00.616Z,100570
2023-09-21T06:12:00.623Z,100570
2023-09-21T06:13:00.662Z,100570
2023-09-21T06:14:00.664Z,100570
2023-09-21T06:15:00.807Z,100570
2023-09-21T06:16:00.640Z,100570
2023-09-21T06:17:00.621Z,100570
2023-09-21T06:18:00.717Z,100570
2023-09-21T06:19:00.674Z,100570
2023-09-21T06:20:00.647Z,100570
2023-09-21T06:21:00.685Z,100570
2023-09-21T06:22:00.644Z,100570
2023-09-21T06:23:00.602Z,100570
2023-09-21T06:24:00.619Z,100570
2023-09-21T06:25:00.638Z,100560
2023-09-21T06:26:00.749Z,100560
2023-09-21T06:27:00.668Z,100560
2023-09-21T06:28:00.847Z,100560
2023-09-21T06:29:00.625Z,100560
2023-09-21T06:30:00.712Z,100560
2023-09-21T06:31:04.180Z,100560
2023-09-21T06:32:11.759Z,100560
2023-09-21T06:33:00.666Z,100570
2023-09-21T06:34:00.687Z,100570
2023-09-21T06:35:00.721Z,100570
2023-09-21T06:36:00.683Z,100570
2023-09-21T06:37:00.667Z,100570
2023-09-21T06:38:00.616Z,100580
2023-09-21T06:39:00.720Z,100570
2023-09-21T06:40:00.655Z,100570
2023-09-21T06:41:00.608Z,100570
2023-09-21T06:42:00.649Z,100570
2023-09-21T06:43:00.641Z,100570
2023-09-21T06:44:00.638Z,100560
2023-09-21T06:45:00.658Z,100570
2023-09-21T06:46:00.675Z,100560
2023-09-21T06:47:00.704Z,100560
2023-09-21T06:48:00.886Z,100560
2023-09-21T06:49:01.360Z,100560
2023-09-21T06:50:00.627Z,100560
2023-09-21T06:51:00.667Z,100560
2023-09-21T06:52:00.671Z,100560
2023-09-21T06:53:00.618Z,100560
2023-09-21T06:54:00.639Z,100560
2023-09-21T06:55:00.650Z,100560
2023-09-21T06:56:00.660Z,100560
2023-09-21T06:57:00.647Z,100570
2023-09-21T06:58:00.884Z,100570
2023-09-21T06:59:00.701Z,100560
2023-09-21T07:00:01.268Z,100560
2023-09-21T07:01:00.805Z,100560
2023-09-21T07:02:00.620Z,100560
2023-09-21T07:03:00.726Z,100560
2023-09-21T07:04:01.192Z,100560
2023-09-21T07:05:00.625Z,100560
2023-09-21T07:06:00.733Z,100560
2023-09-21T07:07:00.751Z,100570
2023-09-21T07:08:00.624Z,100570
2023-09-21T07:09:00.823Z,100560
2023-09-21T07:10:00.701Z,100560
2023-09-21T07:11:00.622Z,100560
2023-09-21T07:12:01.400Z,100560
2023-09-21T07:13:00.626Z,100560
2023-09-21T07:14:00.607Z,100560
2023-09-21T07:15:00.764Z,100560
2023-09-21T07:16:00.648Z,100550
2023-09-21T07:17:00.649Z,100550
2023-09-21T07:18:00.790Z,100560
2023-09-21T07:19:00.733Z,100560
2023-09-21T07:20:00.981Z,100560
2023-09-21T07:21:00.872Z,100560
2023-09-21T07:22:00.940Z,100560
2023-09-21T07:23:01.010Z,100560
2023-09-21T07:24:00.681Z,100570
2023-09-21T07:25:00.621Z,100570
2023-09-21T07:26:00.639Z,100570
2023-09-21T07:27:00.689Z,100570
2023-09-21T07:28:00.663Z,100570
2023-09-21T07:29:04.156Z,100570
2023-09-21T07:30:00.682Z,100570
2023-09-21T07:31:00.650Z,100570
2023-09-21T07:32:00.859Z,100570
2023-09-21T07:33:00.758Z,100580
2023-09-21T07:34:01.340Z,100570
2023-09-21T07:35:00.621Z,100570
2023-09-21T07:36:00.685Z,100570
2023-09-21T07:37:00.629Z,100570
2023-09-21T07:38:02.335Z,100570
2023-09-21T07:39:01.036Z,100570
2023-09-21T07:40:00.815Z,100570
2023-09-21T07:41:00.614Z,100570
2023-09-21T07:42:00.672Z,100570
2023-09-21T07:43:00.705Z,100570
2023-09-21T07:44:00.734Z,100570
2023-09-21T07:45:00.921Z,100570
2023-09-21T07:46:18.068Z,100570
2023-09-21T07:47:00.720Z,100570
2023-09-21T07:56:16.528Z,100570
2023-09-21T07:57:00.644Z,100570
2023-09-21T07:58:00.605Z,100560
2023-09-21T07:59:00.629Z,100560
2023-09-21T08:00:01.100Z,100570
2023-09-21T08:01:00.636Z,100570
2023-09-21T08:02:00.644Z,100570
2023-09-21T08:03:00.766Z,100570
2023-09-21T08:04:00.670Z,100570
2023-09-21T08:05:01.020Z,100570
2023-09-21T08:06:00.705Z,100570
2023-09-21T08:07:00.750Z,100570
2023-09-21T08:08:00.643Z,100570
2023-09-21T08:09:00.755Z,100570
2023-09-21T08:10:01.085Z,100570
2023-09-21T08:11:00.671Z,100580
2023-09-21T08:12:00.696Z,100580
2023-09-21T08:13:01.526Z,100580
2023-09-21T08:14:00.632Z,100580
2023-09-21T08:15:00.809Z,100580
2023-09-21T08:16:00.597Z,100580
2023-09-21T08:17:00.876Z,100580
2023-09-21T08:18:00.774Z,100570
2023-09-21T08:19:00.656Z,100570
2023-09-21T08:20:00.640Z,100570
2023-09-21T08:21:00.664Z,100570
2023-09-21T08:22:00.646Z,100570
2023-09-21T08:23:00.655Z,100570
2023-09-21T08:24:00.689Z,100570
2023-09-21T08:25:00.656Z,100570
2023-09-21T08:26:00.646Z,100570
2023-09-21T08:27:00.680Z,100570
2023-09-21T08:28:01.019Z,100570
2023-09-21T08:29:00.764Z,100580
2023-09-21T08:30:01.167Z,100570
2023-09-21T08:31:00.627Z,100570
2023-09-21T08:32:00.618Z,100570
2023-09-21T08:33:00.727Z,100570
2023-09-21T08:34:00.664Z,100560
2023-09-21T08:35:00.806Z,100560
2023-09-21T08:36:00.664Z,100570
2023-09-21T08:37:00.594Z,100560
2023-09-21T08:38:00.682Z,100570
2023-09-21T08:39:00.723Z,100570
2023-09-21T08:40:00.926Z,100570
2023-09-21T08:41:01.406Z,100570
2023-09-21T08:42:00.678Z,100560
2023-09-21T08:43:02.004Z,100560
2023-09-21T08:44:01.244Z,100560
2023-09-21T08:45:01.169Z,100550
2023-09-21T08:46:00.907Z,100560
2023-09-21T08:47:00.931Z,100560
2023-09-21T08:48:01.720Z,100560
2023-09-21T08:49:01.587Z,100560
2023-09-21T08:50:02.958Z,100560
2023-09-21T08:51:02.532Z,100560
2023-09-21T08:52:01.596Z,100560
2023-09-21T08:53:02.124Z,100560
2023-09-21T08:54:02.464Z,100560
2023-09-21T08:55:01.091Z,100560
2023-09-21T08:56:00.831Z,100560
2023-09-21T08:57:02.256Z,100560
2023-09-21T08:58:00.689Z,100560
2023-09-21T08:59:00.795Z,100560
2023-09-21T09:00:01.273Z,100560
2023-09-21T09:01:00.624Z,100560
2023-09-21T09:02:00.684Z,100560
2023-09-21T09:03:00.817Z,100560
2023-09-21T09:04:00.804Z,100560
2023-09-21T09:05:02.365Z,100560
2023-09-21T09:06:00.651Z,100560
2023-09-21T09:07:00.619Z,100560
2023-09-21T09:08:00.628Z,100560
2023-09-21T09:09:00.767Z,100560
2023-09-21T09:10:00.661Z,100560
2023-09-21T09:11:00.655Z,100560
2023-09-21T09:12:00.775Z,100560
2023-09-21T09:13:03.675Z,100560
2023-09-21T09:14:01.207Z,100560
2023-09-21T09:15:00.630Z,100560
2023-09-21T09:16:00.634Z,100560
2023-09-21T09:17:11.945Z,100570
2023-09-21T09:18:02.607Z,100570
2023-09-21T09:19:01.880Z,100570
2023-09-21T09:20:00.964Z,100570
2023-09-21T09:21:00.716Z,100570
2023-09-21T09:22:00.683Z,100570
2023-09-21T09:23:01.265Z,100570
2023-09-21T09:24:00.796Z,100570
2023-09-21T09:25:04.767Z,100570
2023-09-21T09:26:07.426Z,100570
2023-09-21T09:27:03.327Z,100570
2023-09-21T09:28:00.640Z,100570
2023-09-21T09:29:09.017Z,100570
2023-09-21T09:30:00.721Z,100570
2023-09-21T09:31:00.633Z,100570
2023-09-21T09:32:00.600Z,100560
2023-09-21T09:33:01.082Z,100560
2023-09-21T09:34:01.277Z,100560
2023-09-21T09:35:02.301Z,100560
2023-09-21T09:36:01.546Z,100560
2023-09-21T09:37:00.862Z,100560
2023-09-21T09:38:00.617Z,100560
2023-09-21T09:39:00.802Z,100560
2023-09-21T09:40:00.806Z,100560
2023-09-21T09:41:01.835Z,100560
2023-09-21T09:42:02.290Z,100560
2023-09-21T09:43:01.709Z,100570
2023-09-21T09:44:03.478Z,100570
2023-09-21T09:45:02.121Z,100560
2023-09-21T09:46:03.973Z,100560
2023-09-21T09:47:02.103Z,100550
2023-09-21T09:48:00.977Z,100560
2023-09-21T09:49:02.020Z,100550
2023-09-21T09:50:01.381Z,100550
2023-09-21T09:51:03.661Z,100560
2023-09-21T09:52:00.989Z,100560
2023-09-21T09:53:05.312Z,100560
2023-09-21T09:54:01.036Z,100560
2023-09-21T09:55:01.050Z,100560
2023-09-21T09:56:01.409Z,100550
2023-09-21T09:57:01.390Z,100550
2023-09-21T09:58:01.094Z,100550
2023-09-21T10:05:00.718Z,100550
2023-09-21T10:06:00.648Z,100540
2023-09-21T10:07:00.446Z,100540
2023-09-21T10:08:01.874Z,100530
2023-09-21T10:09:00.511Z,100530
2023-09-21T10:10:00.582Z,100530
2023-09-21T10:11:00.565Z,100530
2023-09-21T10:12:01.393Z,100530
2023-09-21T10:13:00.464Z,100530
2023-09-21T10:14:00.499Z,100520
2023-09-21T10:15:02.149Z,100520
2023-09-21T10:16:04.296Z,100520
2023-09-21T10:17:03.510Z,100520
2023-09-21T10:18:00.570Z,100520
2023-09-21T10:19:00.590Z,100520
2023-09-21T10:20:10.543Z,100520
2023-09-21T10:21:30.386Z,100520
2023-09-21T10:22:00.434Z,100520
2023-09-21T10:23:01.627Z,100510
2023-09-21T10:24:03.300Z,100520
2023-09-21T10:25:01.061Z,100510
2023-09-21T10:26:04.133Z,100510
2023-09-21T10:27:01.676Z,100510
2023-09-21T10:28:00.521Z,100510
2023-09-21T10:29:00.919Z,100500
2023-09-21T10:30:01.879Z,100500
2023-09-21T10:31:07.838Z,100500
2023-09-21T10:32:01.135Z,100490
2023-09-21T10:33:01.900Z,100490
2023-09-21T10:34:00.417Z,100490
2023-09-21T10:35:00.465Z,100490
2023-09-21T10:36:00.515Z,100480
2023-09-21T10:37:02.612Z,100480
2023-09-21T10:38:16.924Z,100480
2023-09-21T10:39:07.893Z,100480
2023-09-21T10:40:00.440Z,100470
2023-09-21T10:41:27.319Z,100470
2023-09-21T10:42:01.482Z,100470
2023-09-21T10:43:30.320Z,100470
2023-09-21T10:44:00.426Z,100460
2023-09-21T10:45:02.096Z,100460
2023-09-21T10:46:00.685Z,100450
2023-09-21T10:47:00.505Z,100450
2023-09-21T10:48:00.588Z,100450
2023-09-21T10:49:03.849Z,100450
2023-09-21T10:50:07.055Z,100450
2023-09-21T10:51:00.602Z,100450
2023-09-21T10:52:01.149Z,100450
2023-09-21T10:53:00.823Z,100440
2023-09-21T10:54:00.647Z,100440
2023-09-21T10:55:00.741Z,100440
2023-09-21T10:56:00.473Z,100440
2023-09-21T10:57:00.439Z,100440
2023-09-21T10:58:00.412Z,100440
2023-09-21T10:59:00.495Z,100440
2023-09-21T11:00:12.324Z,100440
2023-09-21T11:01:00.995Z,100440
2023-09-21T11:02:00.466Z,100440
2023-09-21T11:03:00.743Z,100440
2023-09-21T11:04:00.567Z,100440
2023-09-21T11:05:00.643Z,100430
2023-09-21T11:06:00.477Z,100440
2023-09-21T11:07:00.443Z,100430
2023-09-21T11:08:00.495Z,100430
2023-09-21T11:09:00.530Z,100430
2023-09-21T11:10:00.440Z,100430
2023-09-21T11:11:00.502Z,100440
2023-09-21T11:12:00.539Z,100430
2023-09-21T11:13:00.420Z,100430
2023-09-21T11:14:00.495Z,100430
2023-09-21T11:15:00.550Z,100440
2023-09-21T11:16:00.499Z,100440
2023-09-21T11:17:00.677Z,100430
2023-09-21T11:18:00.608Z,100430
2023-09-21T11:19:01.303Z,100430
2023-09-21T11:20:00.932Z,100430
2023-09-21T11:21:00.624Z,100430
2023-09-21T11:22:00.425Z,100430
2023-09-21T11:23:01.462Z,100430
2023-09-21T11:24:00.506Z,100430
2023-09-21T11:25:00.499Z,100430
2023-09-21T11:26:00.603Z,100430
2023-09-21T11:27:02.109Z,100430
2023-09-21T11:28:00.452Z,100430
2023-09-21T11:29:00.978Z,100430
2023-09-21T11:30:00.482Z,100420
2023-09-21T11:31:01.855Z,100420
2023-09-21T11:32:00.687Z,100420
2023-09-21T11:33:00.507Z,100420
2023-09-21T11:34:04.050Z,100420
2023-09-21T11:35:00.435Z,100420
2023-09-21T11:36:01.301Z,100420
2023-09-21T11:37:00.472Z,100420
2023-09-21T11:38:02.988Z,100420
2023-09-21T11:39:00.509Z,100410
2023-09-21T11:40:00.560Z,100410
2023-09-21T11:41:00.551Z,100410
2023-09-21T11:42:00.500Z,100410
2023-09-21T11:43:00.422Z,100410
2023-09-21T11:44:01.640Z,100410
2023-09-21T11:45:00.443Z,100410
2023-09-21T11:46:02.082Z,100410
2023-09-21T11:47:00.630Z,100410
2023-09-21T11:48:00.819Z,100410
2023-09-21T11:49:00.760Z,100410
2023-09-21T11:50:02.660Z,100400
2023-09-21T11:51:00.644Z,100400
2023-09-21T11:52:00.768Z,100400
2023-09-21T11:53:03.739Z,100400
2023-09-21T11:54:00.508Z,100400
2023-09-21T11:55:00.451Z,100390
2023-09-21T11:56:00.429Z,100390
2023-09-21T11:57:00.505Z,100390
2023-09-21T11:58:16.389Z,100380
2023-09-21T11:59:00.404Z,100390
2023-09-21T12:00:00.481Z,100380
2023-09-21T12:01:00.619Z,100380
2023-09-21T12:02:00.498Z,100380
2023-09-21T12:03:00.680Z,100380
2023-09-21T12:04:01.011Z,100380
2023-09-21T12:05:00.423Z,100370
2023-09-21T12:06:00.425Z,100370
2023-09-21T12:07:15.251Z,100370
2023-09-21T12:08:00.387Z,100370
2023-09-21T12:09:00.441Z,100370
2023-09-21T12:10:00.447Z,100360
2023-09-21T12:11:00.424Z,100360
2023-09-21T12:12:00.486Z,100360
2023-09-21T12:13:00.441Z,100350
2023-09-21T12:14:00.466Z,100350
2023-09-21T12:15:00.566Z,100360
2023-09-21T12:16:00.795Z,100360
2023-09-21T12:17:00.801Z,100350
2023-09-21T12:18:00.644Z,100350
2023-09-21T12:19:00.573Z,100350
2023-09-21T12:20:00.444Z,100360
2023-09-21T12:21:00.511Z,100350
2023-09-21T12:22:00.440Z,100360
2023-09-21T12:23:00.486Z,100350
2023-09-21T12:24:00.602Z,100350
2023-09-21T12:25:00.438Z,100350
2023-09-21T12:26:00.778Z,100340
2023-09-21T12:27:02.633Z,100340
2023-09-21T12:28:00.668Z,100340
2023-09-21T12:29:00.414Z,100340
2023-09-21T12:30:00.698Z,100340
2023-09-21T12:31:00.551Z,100340
2023-09-21T12:32:01.080Z,100340
2023-09-21T12:33:00.508Z,100340
2023-09-21T12:34:00.560Z,100340
2023-09-21T12:35:00.433Z,100340
2023-09-21T12:36:00.544Z,100340
2023-09-21T12:37:00.855Z,100340
2023-09-21T12:38:00.845Z,100340
2023-09-21T12:39:00.512Z,100340
2023-09-21T12:40:00.437Z,100340
2023-09-21T12:41:00.501Z,100340
2023-09-21T12:42:00.521Z,100340